createdAt,value
2018-07-11T00:02:21.983Z,10.90
2018-07-11T00:04:51.279Z,9.93
2018-07-11T00:07:20.403Z,10.37
2018-07-11T00:09:49.615Z,10.93
2018-07-11T00:12:18.827Z,10.10
2018-07-11T00:14:48.048Z,10.27
2018-07-11T00:17:17.344Z,9.97
2018-07-11T00:19:46.665Z,11.00
2018-07-11T00:22:16.753Z,11.33
2018-07-11T00:24:46.200Z,9.77
2018-07-11T00:27:15.409Z,10.07
2018-07-11T00:29:44.876Z,11.03
2018-07-11T00:32:14.134Z,10.43
2018-07-11T00:34:43.358Z,9.80
2018-07-11T00:37:12.626Z,10.33
2018-07-11T00:39:41.767Z,10.03
2018-07-11T00:42:11.120Z,10.17
2018-07-11T00:44:40.735Z,9.60
2018-07-11T00:47:10.455Z,9.70
2018-07-11T00:49:39.741Z,10.07
2018-07-11T00:52:09.084Z,10.37
2018-07-11T00:54:38.232Z,9.40
2018-07-11T00:57:07.462Z,9.67
2018-07-11T00:59:38.983Z,9.77
2018-07-11T01:02:08.203Z,9.30
2018-07-11T01:04:37.755Z,10.27
2018-07-11T01:07:07.620Z,9.87
2018-07-11T01:09:44.435Z,10.10
2018-07-11T01:12:13.330Z,10.23
2018-07-11T01:14:42.672Z,9.93
2018-07-11T01:17:17.196Z,10.00
2018-07-11T01:19:47.167Z,10.30
2018-07-11T01:22:16.561Z,9.73
2018-07-11T01:24:45.894Z,10.00
2018-07-11T01:27:14.963Z,9.43
2018-07-11T01:29:44.187Z,9.60
2018-07-11T01:32:13.432Z,9.07
2018-07-11T01:34:42.744Z,9.23
2018-07-11T01:37:11.732Z,10.20
2018-07-11T01:39:41.046Z,10.27
2018-07-11T01:42:10.183Z,9.37
2018-07-11T01:44:39.571Z,9.93
2018-07-11T01:47:08.750Z,9.80
2018-07-11T01:49:38.754Z,9.47
2018-07-11T01:52:19.056Z,9.23
2018-07-11T01:54:48.875Z,9.47
2018-07-11T01:57:18.160Z,9.60
2018-07-11T01:59:47.644Z,9.30
2018-07-11T02:02:17.014Z,9.77
2018-07-11T02:04:46.358Z,11.17
2018-07-11T02:07:15.472Z,10.50
2018-07-11T02:09:44.701Z,10.17
2018-07-11T02:12:14.233Z,10.97
2018-07-11T02:14:47.753Z,10.57
2018-07-11T02:17:16.851Z,10.33
2018-07-11T02:19:45.991Z,10.20
2018-07-11T02:22:15.480Z,9.83
2018-07-11T02:24:44.115Z,10.00
2018-07-11T02:27:13.447Z,10.60
2018-07-11T02:29:42.499Z,9.93
2018-07-11T02:32:11.885Z,9.83
2018-07-11T02:34:41.090Z,9.77
2018-07-11T02:37:10.571Z,9.47
2018-07-11T02:39:40.162Z,9.23
2018-07-11T02:42:08.794Z,12.43
2018-07-11T02:44:38.151Z,11.70
2018-07-11T02:47:13.639Z,11.27
2018-07-11T02:49:43.786Z,14.43
2018-07-11T02:52:12.829Z,11.80
2018-07-11T02:54:42.148Z,11.17
2018-07-11T02:57:11.337Z,10.70
2018-07-11T02:59:40.735Z,11.73
2018-07-11T03:02:09.894Z,11.30
2018-07-11T03:04:39.344Z,10.63
2018-07-11T03:07:09.441Z,11.40
2018-07-11T03:09:39.043Z,11.80
2018-07-11T03:12:08.675Z,12.40
2018-07-11T03:14:41.991Z,12.20
2018-07-11T03:17:12.755Z,10.73
2018-07-11T03:19:41.935Z,11.53
2018-07-11T03:22:11.126Z,11.13
2018-07-11T03:24:40.273Z,12.20
2018-07-11T03:27:09.751Z,13.07
2018-07-11T03:29:39.338Z,13.67
2018-07-11T03:32:08.421Z,12.47
2018-07-11T03:34:37.662Z,12.23
2018-07-11T03:37:06.495Z,11.80
2018-07-11T03:39:35.674Z,11.27
2018-07-11T03:42:05.165Z,11.53
2018-07-11T03:44:34.176Z,11.53
2018-07-11T03:47:03.456Z,12.60
2018-07-11T03:49:32.907Z,12.30
2018-07-11T03:52:02.512Z,12.40
2018-07-11T03:54:31.859Z,12.17
2018-07-11T03:57:01.003Z,12.53
2018-07-11T03:59:30.100Z,12.93
2018-07-11T04:01:59.347Z,13.67
2018-07-11T04:04:28.787Z,12.83
2018-07-11T04:06:58.717Z,13.20
2018-07-11T04:09:28.101Z,12.27
2018-07-11T04:11:57.196Z,12.07
2018-07-11T04:14:26.403Z,12.93
2018-07-11T04:16:55.559Z,13.47
2018-07-11T04:19:25.056Z,13.90
2018-07-11T04:21:54.159Z,14.70
2018-07-11T04:24:23.603Z,15.43
2018-07-11T04:26:52.938Z,12.13
2018-07-11T04:29:22.069Z,13.47
2018-07-11T04:31:51.703Z,10.83
2018-07-11T04:34:21.756Z,11.10
2018-07-11T04:36:51.091Z,13.87
2018-07-11T04:39:20.336Z,11.00
2018-07-11T04:41:49.436Z,11.23
2018-07-11T04:44:18.630Z,11.97
2018-07-11T04:46:47.657Z,11.57
2018-07-11T04:49:16.869Z,11.17
2018-07-11T04:51:47.043Z,11.63
2018-07-11T04:54:17.329Z,10.50
2018-07-11T04:56:46.559Z,11.73
2018-07-11T04:59:15.705Z,12.03
2018-07-11T05:01:45.231Z,11.60
2018-07-11T05:04:14.261Z,11.33
2018-07-11T05:06:42.865Z,12.13
2018-07-11T05:09:12.411Z,12.53
2018-07-11T05:11:41.588Z,14.37
2018-07-11T05:14:10.656Z,13.03
2018-07-11T05:16:39.976Z,12.37
2018-07-11T05:19:09.359Z,12.03
2018-07-11T05:21:38.619Z,10.87
2018-07-11T05:24:07.754Z,13.03
2018-07-11T05:26:36.967Z,10.80
2018-07-11T05:29:06.427Z,10.27
2018-07-11T05:31:35.607Z,10.10
2018-07-11T05:34:04.813Z,8.97
2018-07-11T05:36:34.120Z,9.50
2018-07-11T05:39:03.743Z,9.10
2018-07-11T05:41:34.651Z,7.87
2018-07-11T05:44:03.738Z,7.67
2018-07-11T05:46:32.912Z,7.00
2018-07-11T05:49:02.371Z,7.13
2018-07-11T05:51:31.536Z,6.50
2018-07-11T05:54:01.043Z,7.00
2018-07-11T05:56:30.809Z,7.60
2018-07-11T05:59:00.085Z,8.63
2018-07-11T06:01:29.328Z,9.07
2018-07-11T06:03:58.664Z,11.63
2018-07-11T06:06:27.705Z,11.80
2018-07-11T06:08:57.117Z,12.27
2018-07-11T06:11:26.379Z,8.90
2018-07-11T06:13:55.847Z,8.07
2018-07-11T06:16:25.459Z,9.03
2018-07-11T06:18:54.649Z,11.60
2018-07-11T06:21:26.058Z,9.63
2018-07-11T06:23:55.503Z,8.90
2018-07-11T06:26:24.928Z,9.17
2018-07-11T06:28:54.107Z,8.93
2018-07-11T06:31:23.673Z,20.33
2018-07-11T06:33:52.762Z,14.17
2018-07-11T06:36:22.036Z,12.53
2018-07-11T06:38:51.180Z,9.87
2018-07-11T06:41:20.649Z,9.20
2018-07-11T06:43:49.805Z,6.67
2018-07-11T06:46:19.388Z,7.00
2018-07-11T06:48:48.815Z,6.70
2018-07-11T06:51:18.284Z,7.30
2018-07-11T06:53:47.677Z,6.90
2018-07-11T06:56:17.079Z,9.03
2018-07-11T06:58:46.919Z,8.93
2018-07-11T07:01:17.529Z,7.97
2018-07-11T07:03:46.678Z,8.33
2018-07-11T07:06:15.717Z,7.20
2018-07-11T07:08:44.976Z,8.10
2018-07-11T07:11:14.098Z,8.63
2018-07-11T07:13:43.579Z,8.20
2018-07-11T07:16:13.262Z,9.13
2018-07-11T07:18:43.027Z,11.57
2018-07-11T07:21:12.257Z,10.07
2018-07-11T07:23:41.435Z,10.10
2018-07-11T07:26:10.677Z,9.93
2018-07-11T07:28:39.788Z,8.23
2018-07-11T07:31:09.241Z,8.97
2018-07-11T07:33:38.581Z,8.70
2018-07-11T07:36:07.779Z,8.57
2018-07-11T07:38:40.463Z,8.97
2018-07-11T07:41:10.397Z,9.43
2018-07-11T07:43:40.780Z,11.33
2018-07-11T07:46:09.920Z,11.20
2018-07-11T07:48:39.139Z,16.00
2018-07-11T07:51:08.247Z,8.70
2018-07-11T07:53:38.424Z,10.33
2018-07-11T07:56:07.600Z,6.27
2018-07-11T07:58:38.093Z,7.03
2018-07-11T08:01:08.479Z,8.10
2018-07-11T08:03:38.875Z,8.27
2018-07-11T08:06:08.240Z,7.47
2018-07-11T08:08:37.612Z,4.30
2018-07-11T08:11:06.980Z,5.50
2018-07-11T08:13:36.366Z,8.90
2018-07-11T08:16:05.382Z,7.97
2018-07-11T08:18:34.913Z,7.87
2018-07-11T08:21:04.115Z,5.97
2018-07-11T08:23:44.037Z,6.12
2018-07-11T08:26:24.413Z,5.97
2018-07-11T08:30:33.320Z,5.85
2018-07-11T08:33:26.388Z,6.40
2018-07-11T08:37:18.821Z,5.47
2018-07-11T08:40:29.315Z,5.60
2018-07-11T08:46:13.720Z,5.97
2018-07-11T08:48:54.254Z,6.92
2018-07-11T08:52:36.513Z,6.43
2018-07-11T08:55:21.916Z,5.62
2018-07-11T09:00:03.576Z,5.53
2018-07-11T09:03:45.143Z,6.15
2018-07-11T09:08:26.769Z,6.20
2018-07-11T09:11:04.503Z,8.30
2018-07-11T09:13:44.843Z,9.28
2018-07-11T09:17:25.671Z,8.40
2018-07-11T09:20:25.884Z,8.88
2018-07-11T09:24:12.333Z,7.47
2018-07-11T09:26:41.504Z,8.38
2018-07-11T09:29:11.035Z,8.23
2018-07-11T09:31:40.667Z,8.58
2018-07-11T09:34:09.865Z,7.55
2018-07-11T09:36:38.985Z,8.30
2018-07-11T09:39:08.640Z,8.60
2018-07-11T09:41:37.984Z,8.23
2018-07-11T09:44:07.572Z,12.27
2018-07-11T09:46:36.914Z,10.32
2018-07-11T09:49:06.448Z,12.25
2018-07-11T09:51:35.903Z,15.85
2018-07-11T09:54:05.125Z,11.85
2018-07-11T09:56:34.641Z,10.80
2018-07-11T09:59:03.868Z,9.93
2018-07-11T10:01:32.515Z,9.65
2018-07-11T10:04:01.943Z,18.23
2018-07-11T10:06:31.139Z,23.42
2018-07-11T10:09:00.964Z,10.60
2018-07-11T10:11:30.181Z,10.40
2018-07-11T10:13:59.333Z,16.17
2018-07-11T10:16:28.561Z,28.95
2018-07-11T10:18:59.523Z,15.85
2018-07-11T10:21:29.931Z,9.50
2018-07-11T10:23:59.311Z,8.93
2018-07-11T10:26:28.179Z,7.62
2018-07-11T10:28:57.500Z,7.92
2018-07-11T10:31:27.755Z,7.83
2018-07-11T10:33:56.952Z,8.17
2018-07-11T10:36:26.279Z,8.13
2018-07-11T10:38:55.940Z,8.23
2018-07-11T10:41:25.237Z,8.70
2018-07-11T10:43:53.892Z,10.13
2018-07-11T10:46:23.232Z,81.63
2018-07-11T10:48:52.800Z,41.43
2018-07-11T10:51:21.847Z,114.10
2018-07-11T10:53:51.135Z,684.40
2018-07-11T10:56:20.604Z,736.05
2018-07-11T10:58:49.764Z,397.43
2018-07-11T11:01:19.232Z,256.77
2018-07-11T11:03:48.362Z,27.07
2018-07-11T11:06:17.996Z,19.07
2018-07-11T11:08:47.414Z,18.42
2018-07-11T11:11:16.655Z,15.60
2018-07-11T11:13:45.969Z,14.63
2018-07-11T11:16:15.020Z,35.43
2018-07-11T11:18:44.301Z,14.83
2018-07-11T11:21:13.787Z,14.60
2018-07-11T11:23:43.076Z,14.93
2018-07-11T11:26:12.240Z,16.27
2018-07-11T11:28:41.240Z,17.33
2018-07-11T11:31:10.883Z,16.60
2018-07-11T11:33:40.204Z,17.10
2018-07-11T11:36:09.866Z,16.80
2018-07-11T11:38:39.035Z,16.53
2018-07-11T11:41:08.424Z,17.23
2018-07-11T11:43:37.969Z,18.30
2018-07-11T11:46:07.133Z,19.73
2018-07-11T11:48:36.280Z,22.93
2018-07-11T11:51:05.553Z,24.87
2018-07-11T11:53:35.063Z,25.53
2018-07-11T11:56:04.828Z,28.93
2018-07-11T11:58:33.989Z,28.23
2018-07-11T12:01:03.128Z,33.23
2018-07-11T12:03:32.508Z,30.40
2018-07-11T12:06:01.369Z,31.40
2018-07-11T12:08:30.945Z,28.70
2018-07-11T12:11:00.089Z,27.23
2018-07-11T12:13:29.012Z,24.60
2018-07-11T12:15:58.365Z,23.43
2018-07-11T12:18:27.999Z,23.70
2018-07-11T12:20:59.843Z,24.63
2018-07-11T12:23:29.684Z,30.47
2018-07-11T12:26:04.704Z,28.57
2018-07-11T12:28:33.899Z,25.30
2018-07-11T12:31:03.630Z,25.53
2018-07-11T12:33:33.116Z,23.97
2018-07-11T12:36:02.547Z,21.60
2018-07-11T12:38:31.657Z,23.37
2018-07-11T12:41:01.036Z,23.77
2018-07-11T12:43:30.214Z,23.87
2018-07-11T12:45:59.468Z,25.23
2018-07-11T12:48:34.307Z,21.30
2018-07-11T12:51:03.784Z,20.90
2018-07-11T12:53:33.132Z,19.07
2018-07-11T12:56:02.652Z,24.00
2018-07-11T12:58:32.011Z,23.97
2018-07-11T13:01:01.250Z,24.37
2018-07-11T13:03:30.654Z,22.80
2018-07-11T13:06:00.487Z,21.23
2018-07-11T13:08:29.781Z,23.20
2018-07-11T13:11:00.358Z,23.43
2018-07-11T13:13:29.605Z,27.23
2018-07-11T13:15:59.085Z,26.17
2018-07-11T13:18:28.324Z,29.73
2018-07-11T13:20:58.591Z,21.90
2018-07-11T13:23:28.148Z,22.60
2018-07-11T13:25:57.097Z,21.03
2018-07-11T13:28:26.344Z,16.47
2018-07-11T13:30:55.660Z,15.30
2018-07-11T13:33:25.088Z,15.57
2018-07-11T13:35:54.344Z,16.13
2018-07-11T13:38:23.928Z,18.07
2018-07-11T13:40:53.396Z,15.80
2018-07-11T13:43:22.558Z,13.90
2018-07-11T13:45:51.843Z,16.00
2018-07-11T13:48:21.137Z,16.20
2018-07-11T13:50:50.394Z,16.43
2018-07-11T13:53:19.596Z,19.60
2018-07-11T13:55:48.796Z,22.77
2018-07-11T13:58:17.756Z,20.53
2018-07-11T14:00:47.214Z,19.87
2018-07-11T14:03:16.340Z,15.90
2018-07-11T14:05:45.514Z,14.87
2018-07-11T14:08:14.519Z,14.53
2018-07-11T14:10:43.816Z,14.73
2018-07-11T14:13:13.307Z,16.17
2018-07-11T14:15:42.811Z,17.73
2018-07-11T14:18:12.194Z,18.37
2018-07-11T14:20:41.396Z,58.10
2018-07-11T14:23:10.580Z,19.57
2018-07-11T14:25:41.332Z,17.43
2018-07-11T14:28:10.717Z,16.53
2018-07-11T14:30:40.301Z,18.77
2018-07-11T14:33:10.129Z,21.50
2018-07-11T14:35:39.371Z,23.50
2018-07-11T14:38:08.724Z,19.93
2018-07-11T14:40:38.516Z,18.53
2018-07-11T14:43:08.629Z,19.40
2018-07-11T14:45:38.306Z,20.27
2018-07-11T14:48:13.927Z,29.57
2018-07-11T14:50:43.228Z,19.60
2018-07-11T14:53:12.524Z,18.67
2018-07-11T14:55:41.948Z,20.40
2018-07-11T14:58:11.501Z,21.97
2018-07-11T15:00:40.915Z,20.17
2018-07-11T15:03:10.170Z,19.80
2018-07-11T15:05:39.690Z,22.83
2018-07-11T15:08:08.865Z,20.13
2018-07-11T15:10:40.741Z,18.27
2018-07-11T15:13:10.325Z,20.87
2018-07-11T15:15:39.909Z,20.23
2018-07-11T15:18:10.774Z,21.93
2018-07-11T15:20:40.674Z,21.63
2018-07-11T15:23:10.235Z,51.73
2018-07-11T15:25:39.494Z,22.73
2018-07-11T15:28:09.100Z,23.20
2018-07-11T15:30:38.616Z,24.20
2018-07-11T15:33:08.852Z,21.23
2018-07-11T15:35:38.379Z,20.13
2018-07-11T15:38:07.733Z,20.40
2018-07-11T15:40:37.172Z,19.90
2018-07-11T15:43:06.584Z,24.63
2018-07-11T15:45:36.187Z,26.83
2018-07-11T15:48:05.577Z,26.43
2018-07-11T15:50:35.039Z,24.67
2018-07-11T15:53:04.367Z,23.30
2018-07-11T15:55:34.660Z,24.47
2018-07-11T15:58:07.304Z,25.80
2018-07-11T16:00:40.266Z,23.93
2018-07-11T16:03:10.588Z,21.47
2018-07-11T16:05:40.787Z,19.20
2018-07-11T16:08:10.046Z,168.37
2018-07-11T16:10:42.380Z,61.20
2018-07-11T16:13:12.577Z,27.03
2018-07-11T16:15:42.520Z,24.40
2018-07-11T16:18:12.149Z,22.93
2018-07-11T16:20:41.454Z,52.70
2018-07-11T16:23:11.535Z,35.40
2018-07-11T16:25:42.522Z,32.30
2018-07-11T16:28:12.075Z,21.10
2018-07-11T16:30:41.680Z,22.70
2018-07-11T16:33:10.867Z,28.90
2018-07-11T16:35:40.298Z,27.00
2018-07-11T16:38:09.926Z,24.23
2018-07-11T16:40:39.383Z,25.53
2018-07-11T16:43:08.792Z,30.13
2018-07-11T16:45:38.304Z,27.33
2018-07-11T16:48:07.584Z,23.80
2018-07-11T16:50:38.992Z,22.70
2018-07-11T16:53:08.921Z,21.27
2018-07-11T16:55:38.669Z,22.20
2018-07-11T16:58:08.050Z,24.03
2018-07-11T17:00:39.060Z,26.33
2018-07-11T17:03:12.621Z,25.93
2018-07-11T17:05:54.527Z,28.97
2018-07-11T17:08:31.194Z,28.47
2018-07-11T17:11:05.738Z,27.83
2018-07-11T17:13:35.111Z,28.03
2018-07-11T17:16:04.673Z,27.17
2018-07-11T17:18:40.915Z,25.93
2018-07-11T17:21:10.880Z,25.53
2018-07-11T17:23:47.780Z,25.17
2018-07-11T17:26:17.857Z,22.87
2018-07-11T17:28:47.767Z,28.13
2018-07-11T17:31:17.362Z,28.87
2018-07-11T17:33:46.772Z,26.47
2018-07-11T17:36:15.931Z,26.70
2018-07-11T17:38:48.543Z,27.93
2018-07-11T17:41:18.204Z,27.30
2018-07-11T17:43:53.991Z,28.07
2018-07-11T17:46:23.677Z,30.03
2018-07-11T17:49:06.737Z,24.50
2018-07-11T17:51:47.863Z,25.60
2018-07-11T17:54:17.316Z,25.40
2018-07-11T17:56:53.168Z,26.07
2018-07-11T17:59:43.366Z,26.30
2018-07-11T18:02:20.082Z,28.83
2018-07-11T18:05:01.891Z,28.97
2018-07-11T18:07:42.185Z,36.07
2018-07-11T18:10:15.282Z,38.90
2018-07-11T18:12:52.779Z,36.77
2018-07-11T18:16:42.990Z,38.70
2018-07-11T18:21:32.336Z,49.93
2018-07-11T18:26:15.038Z,45.20
2018-07-11T18:28:59.723Z,47.03
2018-07-11T18:31:44.988Z,41.60
2018-07-11T18:34:25.229Z,37.60
2018-07-11T18:38:03.495Z,33.43
2018-07-11T18:40:36.832Z,26.07
2018-07-11T18:45:20.602Z,26.23
2018-07-11T18:49:01.707Z,27.93
2018-07-11T18:51:40.559Z,31.47
2018-07-11T18:54:14.251Z,34.97
2018-07-11T18:57:10.019Z,33.73
2018-07-11T18:59:50.681Z,36.00
2018-07-11T19:02:37.040Z,37.97
2018-07-11T19:05:22.555Z,41.27
2018-07-11T19:10:02.595Z,41.93
2018-07-11T19:12:40.666Z,39.13
2018-07-11T19:15:15.625Z,40.77
2018-07-11T19:18:04.990Z,41.90
2018-07-11T19:21:18.084Z,41.27
2018-07-11T19:24:15.301Z,45.40
2018-07-11T19:27:28.376Z,47.23
2018-07-11T19:30:07.245Z,45.47
2018-07-11T19:32:50.315Z,45.77
2018-07-11T19:35:37.002Z,48.03
2018-07-11T19:38:52.825Z,49.40
2018-07-11T19:41:26.714Z,47.93
2018-07-11T19:46:08.525Z,134.20
2018-07-11T19:50:52.150Z,40.57
2018-07-11T19:53:30.598Z,38.50
2018-07-11T19:56:06.932Z,44.33
2018-07-11T19:58:36.181Z,47.80
2018-07-11T20:01:05.732Z,45.07
2018-07-11T20:03:35.282Z,45.23
2018-07-11T20:06:04.592Z,35.97
2018-07-11T20:08:34.222Z,20.90
2018-07-11T20:11:03.620Z,17.90
2018-07-11T20:13:34.552Z,14.43
2018-07-11T20:16:05.048Z,15.60
2018-07-11T20:18:34.775Z,15.93
2018-07-11T20:21:04.451Z,20.67
2018-07-11T20:23:33.660Z,17.03
2018-07-11T20:26:03.222Z,33.37
2018-07-11T20:28:32.853Z,22.50
2018-07-11T20:31:02.024Z,22.73
2018-07-11T20:33:32.217Z,17.70
2018-07-11T20:36:01.679Z,20.77
2018-07-11T20:38:30.593Z,20.03
2018-07-11T20:41:00.055Z,16.53
2018-07-11T20:43:29.650Z,13.77
2018-07-11T20:45:59.410Z,11.17
2018-07-11T20:48:28.920Z,9.03
2018-07-11T20:50:58.031Z,6.47
2018-07-11T20:53:27.717Z,6.47
2018-07-11T20:55:57.598Z,6.57
2018-07-11T21:00:41.571Z,7.40
2018-07-11T21:05:27.284Z,7.67
2018-07-11T21:09:35.283Z,8.67
2018-07-11T21:14:21.203Z,8.40
2018-07-11T21:19:05.055Z,8.23
2018-07-11T21:21:35.067Z,8.90
2018-07-11T21:24:04.823Z,10.37
2018-07-11T21:26:34.142Z,9.40
2018-07-11T21:29:03.392Z,9.13
2018-07-11T21:31:32.742Z,7.97
2018-07-11T21:34:02.216Z,7.50
2018-07-11T21:36:31.573Z,8.17
2018-07-11T21:39:01.019Z,7.27
2018-07-11T21:41:30.291Z,8.10
2018-07-11T21:43:59.614Z,7.50
2018-07-11T21:46:28.949Z,9.20
2018-07-11T21:48:58.228Z,9.73
2018-07-11T21:51:27.855Z,10.30
2018-07-11T21:53:57.388Z,8.03
2018-07-11T21:56:26.953Z,7.00
2018-07-11T21:58:56.105Z,7.50
2018-07-11T22:01:26.399Z,7.40
2018-07-11T22:03:55.560Z,7.27
2018-07-11T22:06:24.787Z,8.80
2018-07-11T22:08:54.064Z,8.00
2018-07-11T22:11:23.308Z,6.53
2018-07-11T22:13:53.204Z,7.30
2018-07-11T22:16:22.233Z,8.00
2018-07-11T22:18:51.873Z,7.33
2018-07-11T22:21:19.853Z,6.43
2018-07-11T22:23:47.628Z,6.70
2018-07-11T22:26:15.157Z,6.87
2018-07-11T22:28:42.783Z,6.33
2018-07-11T22:31:10.375Z,8.27
2018-07-11T22:33:38.139Z,7.03
2018-07-11T22:36:06.124Z,8.63
2018-07-11T22:38:33.871Z,8.23
2018-07-11T22:41:01.699Z,8.00
2018-07-11T22:43:29.553Z,7.33
2018-07-11T22:45:57.372Z,7.70
2018-07-11T22:48:25.135Z,7.63
2018-07-11T22:50:53.052Z,7.80
2018-07-11T22:53:21.306Z,7.40
2018-07-11T22:55:49.053Z,7.70
2018-07-11T22:58:17.307Z,7.30
2018-07-11T23:00:44.986Z,6.67
2018-07-11T23:03:12.846Z,6.33
2018-07-11T23:05:40.911Z,6.30
2018-07-11T23:08:09.027Z,7.67
2018-07-11T23:10:36.639Z,7.30
2018-07-11T23:13:04.231Z,9.20
2018-07-11T23:15:31.983Z,8.13
2018-07-11T23:17:59.865Z,8.00
2018-07-11T23:20:27.783Z,7.33
2018-07-11T23:22:55.448Z,7.50
2018-07-11T23:25:24.247Z,7.60
2018-07-11T23:27:52.136Z,6.73
2018-07-11T23:30:19.784Z,6.60
2018-07-11T23:32:47.493Z,6.47
2018-07-11T23:35:15.353Z,6.60
2018-07-11T23:37:43.144Z,5.97
2018-07-11T23:40:10.724Z,6.13
2018-07-11T23:42:38.724Z,6.00
2018-07-11T23:45:06.913Z,5.33
2018-07-11T23:47:34.635Z,5.80
2018-07-11T23:50:02.740Z,5.77
2018-07-11T23:52:30.250Z,5.87
2018-07-11T23:54:58.029Z,6.40
2018-07-11T23:57:25.926Z,6.63
2018-07-11T23:59:53.543Z,6.13
